Ogunquit, Maine
Current Conditions -  °F | °C
As of 8:15 PM on Wednesday 22 Oct 2014 (Local Time) from KSFM Reporting Station
Overcast Overcast  
Wind Chill: 39°   Ceiling: 800
Heat Index: 46°   Visibility: 5mi
Dew Point: 41°   Wind: 18mph
Humidity: 81%   Direction: 30°NNE
Pressure: 30"   Gusts: 31mph
Location:  43.25°N, 70.6°W
Report Text: KSFM 230015Z AUTO 03016G27KT 5SM OVC008 08/05 A3000 RMK AO1
Loading
Personal Weather Stations






























Interactive Weather Map
Tropical Storm Tracking
New forecast layout! Learn more

10-Day Weather Forecast

Advertisements
Track Severe Weather on mobile